AFR600 TFFR-TFFF
Flight info
| Callsign | AFR600 |
|---|---|
| Flight time | 0h 28m |
| Altitude | 13000 |
| Route | KATIM2F KATIM KATIM2X |
| Aircraft | A320/M-SDE2E3FGIJ1RWY/HB1 |
Departure
| Time | 2026-04-30 22:24 |
|---|---|
| Airport | Maryse Condé International Airport (TFFR) |
Arrival
| Time | 2026-04-30 22:52 |
|---|---|
| Airport | Martinique Aimé Césaire International Airport (TFFF) |
| Time | Latitude | Longitude | Altitude | Speed | Heading |
|---|---|---|---|---|---|
| 2026-04-30 21:54 | 16.26951 | -61.52960 | 25 ft | 0 kts | 149° |
| 2026-04-30 22:00 | 16.26865 | -61.52458 | 21 ft | 0 kts | 12° |
| 2026-04-30 22:15 | 16.26864 | -61.52458 | 21 ft | 2 kts | 12° |
| 2026-04-30 22:15 | 16.26838 | -61.52463 | 21 ft | 4 kts | 7° |
| 2026-04-30 22:16 | 16.26811 | -61.52465 | 24 ft | 4 kts | 359° |
| 2026-04-30 22:16 | 16.26785 | -61.52462 | 23 ft | 4 kts | 335° |
| 2026-04-30 22:17 | 16.26769 | -61.52443 | 25 ft | 0 kts | 281° |
| 2026-04-30 22:19 | 16.26783 | -61.52523 | 22 ft | 11 kts | 280° |
| 2026-04-30 22:19 | 16.26798 | -61.52603 | 22 ft | 11 kts | 281° |
| 2026-04-30 22:19 | 16.26826 | -61.52759 | 22 ft | 11 kts | 281° |
| 2026-04-30 22:20 | 16.26840 | -61.52835 | 21 ft | 11 kts | 279° |
| 2026-04-30 22:20 | 16.26771 | -61.52941 | 21 ft | 10 kts | 193° |
| 2026-04-30 22:20 | 16.26707 | -61.52954 | 21 ft | 10 kts | 190° |
| 2026-04-30 22:21 | 16.26617 | -61.52973 | 21 ft | 18 kts | 191° |
| 2026-04-30 22:21 | 16.26509 | -61.53061 | 20 ft | 26 kts | 269° |
| 2026-04-30 22:21 | 16.26546 | -61.53274 | 19 ft | 32 kts | 280° |
| 2026-04-30 22:21 | 16.26586 | -61.53509 | 23 ft | 33 kts | 281° |
| 2026-04-30 22:22 | 16.26634 | -61.53750 | 21 ft | 36 kts | 281° |
| 2026-04-30 22:22 | 16.26683 | -61.54013 | 19 ft | 38 kts | 281° |
| 2026-04-30 22:22 | 16.26726 | -61.54257 | 15 ft | 22 kts | 279° |
| 2026-04-30 22:22 | 16.26721 | -61.54372 | 14 ft | 13 kts | 244° |
| 2026-04-30 22:23 | 16.26745 | -61.54390 | 14 ft | 9 kts | 46° |
| 2026-04-30 22:23 | 16.26719 | -61.54196 | 18 ft | 61 kts | 101° |
| 2026-04-30 22:23 | 16.26589 | -61.53510 | 23 ft | 129 kts | 101° |
| 2026-04-30 22:23 | 16.26394 | -61.52451 | 305 ft | 158 kts | 102° |
| 2026-04-30 22:24 | 16.26180 | -61.51286 | 768 ft | 174 kts | 101° |
| 2026-04-30 22:24 | 16.25936 | -61.49963 | 1160 ft | 200 kts | 101° |
| 2026-04-30 22:24 | 16.25655 | -61.48454 | 1761 ft | 224 kts | 99° |
| 2026-04-30 22:24 | 16.25348 | -61.46782 | 2398 ft | 245 kts | 99° |
| 2026-04-30 22:25 | 16.25021 | -61.45009 | 3349 ft | 253 kts | 101° |
| 2026-04-30 22:25 | 16.24682 | -61.43203 | 4387 ft | 257 kts | 102° |
| 2026-04-30 22:25 | 16.23912 | -61.41524 | 5319 ft | 264 kts | 133° |
| 2026-04-30 22:25 | 16.22322 | -61.40559 | 6290 ft | 273 kts | 165° |
| 2026-04-30 22:26 | 16.18447 | -61.40622 | 8057 ft | 285 kts | 186° |
| 2026-04-30 22:26 | 16.16464 | -61.40892 | 8929 ft | 290 kts | 186° |
| 2026-04-30 22:26 | 16.14440 | -61.41111 | 9783 ft | 295 kts | 185° |
| 2026-04-30 22:27 | 16.12357 | -61.41255 | 10309 ft | 310 kts | 183° |
| 2026-04-30 22:27 | 16.10124 | -61.41333 | 10645 ft | 330 kts | 181° |
| 2026-04-30 22:27 | 16.05437 | -61.41350 | 12039 ft | 341 kts | 180° |
| 2026-04-30 22:28 | 16.00643 | -61.41308 | 12904 ft | 345 kts | 180° |
| 2026-04-30 22:28 | 15.98269 | -61.41287 | 12965 ft | 334 kts | 180° |
| 2026-04-30 22:29 | 15.91473 | -61.41199 | 12971 ft | 326 kts | 180° |
| 2026-04-30 22:29 | 15.89210 | -61.41167 | 12969 ft | 325 kts | 180° |
| 2026-04-30 22:30 | 15.80176 | -61.41056 | 12975 ft | 325 kts | 180° |
| 2026-04-30 22:31 | 15.73409 | -61.40972 | 12965 ft | 324 kts | 180° |
| 2026-04-30 22:32 | 15.66642 | -61.40886 | 12969 ft | 324 kts | 180° |
| 2026-04-30 22:32 | 15.62133 | -61.40832 | 12978 ft | 324 kts | 180° |
| 2026-04-30 22:33 | 15.55374 | -61.40746 | 12979 ft | 324 kts | 179° |
| 2026-04-30 22:33 | 15.50878 | -61.40691 | 12974 ft | 323 kts | 179° |
| 2026-04-30 22:34 | 15.44124 | -61.40614 | 12973 ft | 323 kts | 180° |
| 2026-04-30 22:35 | 15.39630 | -61.40539 | 12970 ft | 323 kts | 175° |
| 2026-04-30 22:36 | 15.30795 | -61.38956 | 12961 ft | 323 kts | 170° |
| 2026-04-30 22:36 | 15.28582 | -61.38548 | 12963 ft | 323 kts | 170° |
| 2026-04-30 22:37 | 15.21930 | -61.37339 | 12967 ft | 323 kts | 170° |
| 2026-04-30 22:37 | 15.19745 | -61.36939 | 12967 ft | 323 kts | 170° |
| 2026-04-30 22:37 | 15.15317 | -61.36124 | 12965 ft | 323 kts | 170° |
| 2026-04-30 22:38 | 15.10891 | -61.35309 | 12961 ft | 323 kts | 170° |
| 2026-04-30 22:38 | 15.06460 | -61.34495 | 12952 ft | 323 kts | 170° |
| 2026-04-30 22:39 | 15.04250 | -61.34089 | 12969 ft | 323 kts | 169° |
| 2026-04-30 22:39 | 14.97808 | -61.32916 | 12267 ft | 308 kts | 169° |
| 2026-04-30 22:40 | 14.91510 | -61.31762 | 11067 ft | 306 kts | 169° |
| 2026-04-30 22:41 | 14.85219 | -61.30607 | 9867 ft | 305 kts | 168° |
| 2026-04-30 22:41 | 14.81069 | -61.29982 | 9012 ft | 304 kts | 173° |
| 2026-04-30 22:42 | 14.72927 | -61.29314 | 7190 ft | 290 kts | 174° |
| 2026-04-30 22:43 | 14.68930 | -61.28967 | 6399 ft | 285 kts | 172° |
| 2026-04-30 22:43 | 14.65051 | -61.28616 | 5573 ft | 280 kts | 171° |
| 2026-04-30 22:44 | 14.61205 | -61.28262 | 4711 ft | 276 kts | 173° |
| 2026-04-30 22:45 | 14.55338 | -61.26213 | 4094 ft | 187 kts | 113° |
| 2026-04-30 22:45 | 14.55159 | -61.23945 | 3920 ft | 139 kts | 85° |
| 2026-04-30 22:46 | 14.55402 | -61.22013 | 3711 ft | 135 kts | 82° |
| 2026-04-30 22:47 | 14.56025 | -61.18244 | 3063 ft | 132 kts | 82° |
| 2026-04-30 22:47 | 14.56346 | -61.16375 | 2716 ft | 134 kts | 82° |
| 2026-04-30 22:48 | 14.56668 | -61.14503 | 2383 ft | 133 kts | 83° |
| 2026-04-30 22:49 | 14.57144 | -61.11735 | 1870 ft | 132 kts | 81° |
| 2026-04-30 22:49 | 14.57618 | -61.08978 | 1369 ft | 129 kts | 82° |
| 2026-04-30 22:50 | 14.58245 | -61.05332 | 729 ft | 131 kts | 82° |
| 2026-04-30 22:51 | 14.58561 | -61.03492 | 384 ft | 130 kts | 82° |
| 2026-04-30 22:51 | 14.58880 | -61.01661 | 42 ft | 128 kts | 79° |
| 2026-04-30 22:52 | 14.59013 | -61.00863 | 23 ft | 90 kts | 80° |
| 2026-04-30 22:52 | 14.59112 | -61.00285 | 16 ft | 4 kts | 79° |
| 2026-04-30 22:53 | 14.59144 | -61.00118 | 17 ft | 16 kts | 79° |
| 2026-04-30 22:53 | 14.59267 | -61.00035 | 20 ft | 9 kts | 348° |
| 2026-04-30 22:53 | 14.59270 | -61.00036 | 20 ft | 0 kts | 349° |
| 2026-04-30 22:56 | 14.59271 | -61.00036 | 20 ft | 0 kts | 349° |
| 2026-04-30 22:56 | 14.59424 | -61.00181 | 19 ft | 15 kts | 304° |
| 2026-04-30 22:57 | 14.59530 | -61.00278 | 19 ft | 5 kts | 357° |
| 2026-04-30 22:57 | 14.59579 | -61.00213 | 19 ft | 3 kts | 62° |
| 2026-04-30 22:58 | 14.59579 | -61.00212 | 19 ft | 0 kts | 62° |